sensor_id;sensor_type;location;lat;lon;timestamp;P1;durP1;ratioP1;P2;durP2;ratioP2
16854;SDS011;8543;54.522;18.550;2022-12-18T00:01:24;27.10;;;11.70;;
16854;SDS011;8543;54.522;18.550;2022-12-18T00:03:52;23.40;;;11.10;;
16854;SDS011;8543;54.522;18.550;2022-12-18T00:06:18;21.50;;;10.80;;
16854;SDS011;8543;54.522;18.550;2022-12-18T00:08:44;24.00;;;10.80;;
16854;SDS011;8543;54.522;18.550;2022-12-18T00:11:11;22.60;;;10.30;;
16854;SDS011;8543;54.522;18.550;2022-12-18T00:13:43;23.50;;;11.30;;
16854;SDS011;8543;54.522;18.550;2022-12-18T00:16:20;21.10;;;11.00;;
16854;SDS011;8543;54.522;18.550;2022-12-18T00:18:50;22.80;;;10.20;;
16854;SDS011;8543;54.522;18.550;2022-12-18T00:21:18;22.40;;;11.10;;
16854;SDS011;8543;54.522;18.550;2022-12-18T00:23:43;21.90;;;11.10;;
16854;SDS011;8543;54.522;18.550;2022-12-18T00:26:14;23.10;;;11.00;;
16854;SDS011;8543;54.522;18.550;2022-12-18T00:28:53;20.10;;;9.90;;
16854;SDS011;8543;54.522;18.550;2022-12-18T00:31:19;21.90;;;10.00;;
16854;SDS011;8543;54.522;18.550;2022-12-18T00:33:46;22.30;;;9.90;;
16854;SDS011;8543;54.522;18.550;2022-12-18T00:36:13;21.60;;;10.10;;
16854;SDS011;8543;54.522;18.550;2022-12-18T00:38:43;21.70;;;9.00;;
16854;SDS011;8543;54.522;18.550;2022-12-18T00:41:09;19.10;;;8.50;;
16854;SDS011;8543;54.522;18.550;2022-12-18T00:43:36;20.00;;;9.60;;
16854;SDS011;8543;54.522;18.550;2022-12-18T00:46:02;15.30;;;7.40;;
16854;SDS011;8543;54.522;18.550;2022-12-18T00:48:27;15.20;;;7.80;;
16854;SDS011;8543;54.522;18.550;2022-12-18T00:50:53;22.80;;;10.80;;
16854;SDS011;8543;54.522;18.550;2022-12-18T00:53:18;15.90;;;8.20;;
16854;SDS011;8543;54.522;18.550;2022-12-18T00:55:44;20.60;;;9.60;;
16854;SDS011;8543;54.522;18.550;2022-12-18T00:58:10;20.80;;;9.80;;
16854;SDS011;8543;54.522;18.550;2022-12-18T01:00:37;18.40;;;8.90;;
16854;SDS011;8543;54.522;18.550;2022-12-18T01:03:03;20.10;;;10.00;;
16854;SDS011;8543;54.522;18.550;2022-12-18T01:05:29;21.90;;;10.20;;
16854;SDS011;8543;54.522;18.550;2022-12-18T01:07:55;22.30;;;10.20;;
16854;SDS011;8543;54.522;18.550;2022-12-18T01:10:20;22.70;;;10.50;;
16854;SDS011;8543;54.522;18.550;2022-12-18T01:12:46;23.30;;;10.60;;
16854;SDS011;8543;54.522;18.550;2022-12-18T01:15:12;29.10;;;12.70;;
16854;SDS011;8543;54.522;18.550;2022-12-18T01:17:38;28.50;;;13.60;;
16854;SDS011;8543;54.522;18.550;2022-12-18T01:20:03;25.60;;;12.40;;
16854;SDS011;8543;54.522;18.550;2022-12-18T01:22:29;28.60;;;13.10;;
16854;SDS011;8543;54.522;18.550;2022-12-18T01:24:55;23.70;;;11.30;;
16854;SDS011;8543;54.522;18.550;2022-12-18T01:27:20;20.70;;;11.20;;
16854;SDS011;8543;54.522;18.550;2022-12-18T01:29:45;22.30;;;11.00;;
16854;SDS011;8543;54.522;18.550;2022-12-18T01:32:11;27.70;;;12.00;;
16854;SDS011;8543;54.522;18.550;2022-12-18T01:34:36;25.50;;;11.60;;
16854;SDS011;8543;54.522;18.550;2022-12-18T01:37:03;23.60;;;11.90;;
16854;SDS011;8543;54.522;18.550;2022-12-18T01:39:29;23.30;;;12.30;;
16854;SDS011;8543;54.522;18.550;2022-12-18T01:41:54;27.10;;;12.90;;
16854;SDS011;8543;54.522;18.550;2022-12-18T01:47:35;25.90;;;11.60;;
16854;SDS011;8543;54.522;18.550;2022-12-18T01:50:10;22.30;;;11.10;;
16854;SDS011;8543;54.522;18.550;2022-12-18T01:52:37;24.20;;;10.50;;
16854;SDS011;8543;54.522;18.550;2022-12-18T01:55:04;25.60;;;11.60;;
16854;SDS011;8543;54.522;18.550;2022-12-18T01:57:30;27.40;;;11.00;;
16854;SDS011;8543;54.522;18.550;2022-12-18T01:59:57;26.40;;;12.60;;
16854;SDS011;8543;54.522;18.550;2022-12-18T02:02:26;28.50;;;11.80;;
16854;SDS011;8543;54.522;18.550;2022-12-18T02:04:53;21.60;;;9.80;;
16854;SDS011;8543;54.522;18.550;2022-12-18T02:07:28;23.40;;;11.50;;
16854;SDS011;8543;54.522;18.550;2022-12-18T02:10:17;27.00;;;10.90;;
16854;SDS011;8543;54.522;18.550;2022-12-18T02:15:40;24.50;;;11.30;;
16854;SDS011;8543;54.522;18.550;2022-12-18T02:18:19;23.90;;;10.70;;
16854;SDS011;8543;54.522;18.550;2022-12-18T02:20:59;27.80;;;11.90;;
16854;SDS011;8543;54.522;18.550;2022-12-18T02:28:53;24.20;;;10.90;;
16854;SDS011;8543;54.522;18.550;2022-12-18T02:31:27;23.10;;;10.20;;
16854;SDS011;8543;54.522;18.550;2022-12-18T02:33:55;22.00;;;10.10;;
16854;SDS011;8543;54.522;18.550;2022-12-18T02:36:22;26.60;;;10.90;;
16854;SDS011;8543;54.522;18.550;2022-12-18T02:38:49;22.80;;;10.10;;
16854;SDS011;8543;54.522;18.550;2022-12-18T02:41:15;21.80;;;10.50;;
16854;SDS011;8543;54.522;18.550;2022-12-18T02:43:46;22.20;;;10.70;;
16854;SDS011;8543;54.522;18.550;2022-12-18T02:49:22;27.10;;;11.60;;
16854;SDS011;8543;54.522;18.550;2022-12-18T02:52:01;19.50;;;8.80;;
16854;SDS011;8543;54.522;18.550;2022-12-18T02:54:46;25.40;;;10.40;;
16854;SDS011;8543;54.522;18.550;2022-12-18T02:57:32;22.20;;;8.90;;
16854;SDS011;8543;54.522;18.550;2022-12-18T03:00:09;22.20;;;10.50;;
16854;SDS011;8543;54.522;18.550;2022-12-18T03:05:19;18.90;;;9.10;;
16854;SDS011;8543;54.522;18.550;2022-12-18T03:07:56;19.60;;;8.50;;
16854;SDS011;8543;54.522;18.550;2022-12-18T03:13:06;20.90;;;8.70;;
16854;SDS011;8543;54.522;18.550;2022-12-18T03:15:38;21.60;;;9.40;;
16854;SDS011;8543;54.522;18.550;2022-12-18T03:18:16;24.60;;;10.60;;
16854;SDS011;8543;54.522;18.550;2022-12-18T03:20:44;23.80;;;10.10;;
16854;SDS011;8543;54.522;18.550;2022-12-18T03:23:15;21.60;;;9.60;;
16854;SDS011;8543;54.522;18.550;2022-12-18T03:25:43;20.60;;;9.20;;
16854;SDS011;8543;54.522;18.550;2022-12-18T03:28:12;19.80;;;8.80;;
16854;SDS011;8543;54.522;18.550;2022-12-18T03:30:39;16.60;;;7.20;;
16854;SDS011;8543;54.522;18.550;2022-12-18T03:33:15;19.00;;;8.70;;
16854;SDS011;8543;54.522;18.550;2022-12-18T03:35:44;16.90;;;7.90;;
16854;SDS011;8543;54.522;18.550;2022-12-18T03:38:10;17.50;;;8.00;;
16854;SDS011;8543;54.522;18.550;2022-12-18T03:43:33;17.50;;;7.60;;
16854;SDS011;8543;54.522;18.550;2022-12-18T03:46:24;16.70;;;8.10;;
16854;SDS011;8543;54.522;18.550;2022-12-18T03:49:10;16.10;;;8.00;;
16854;SDS011;8543;54.522;18.550;2022-12-18T03:54:10;14.00;;;6.20;;
16854;SDS011;8543;54.522;18.550;2022-12-18T03:56:37;16.50;;;7.10;;
16854;SDS011;8543;54.522;18.550;2022-12-18T03:59:05;16.00;;;7.50;;
16854;SDS011;8543;54.522;18.550;2022-12-18T04:01:32;16.80;;;7.90;;
16854;SDS011;8543;54.522;18.550;2022-12-18T04:03:59;15.70;;;7.00;;
16854;SDS011;8543;54.522;18.550;2022-12-18T04:06:26;16.30;;;7.70;;
16854;SDS011;8543;54.522;18.550;2022-12-18T04:08:52;16.10;;;7.30;;
16854;SDS011;8543;54.522;18.550;2022-12-18T04:11:17;20.60;;;8.30;;
16854;SDS011;8543;54.522;18.550;2022-12-18T04:13:43;19.40;;;8.10;;
16854;SDS011;8543;54.522;18.550;2022-12-18T04:16:09;20.80;;;7.80;;
16854;SDS011;8543;54.522;18.550;2022-12-18T04:18:34;16.00;;;8.00;;
16854;SDS011;8543;54.522;18.550;2022-12-18T04:21:01;14.40;;;6.80;;
16854;SDS011;8543;54.522;18.550;2022-12-18T04:23:26;14.20;;;6.80;;
16854;SDS011;8543;54.522;18.550;2022-12-18T04:25:53;15.30;;;6.90;;
16854;SDS011;8543;54.522;18.550;2022-12-18T04:28:19;17.00;;;7.30;;
16854;SDS011;8543;54.522;18.550;2022-12-18T04:30:44;15.80;;;7.50;;
16854;SDS011;8543;54.522;18.550;2022-12-18T04:33:10;15.10;;;6.90;;
16854;SDS011;8543;54.522;18.550;2022-12-18T04:35:36;18.90;;;7.90;;
16854;SDS011;8543;54.522;18.550;2022-12-18T04:38:02;21.10;;;7.10;;
16854;SDS011;8543;54.522;18.550;2022-12-18T04:40:27;17.20;;;6.30;;
16854;SDS011;8543;54.522;18.550;2022-12-18T04:42:53;15.20;;;6.80;;
16854;SDS011;8543;54.522;18.550;2022-12-18T04:45:18;16.50;;;7.00;;
16854;SDS011;8543;54.522;18.550;2022-12-18T04:47:43;12.00;;;6.40;;
16854;SDS011;8543;54.522;18.550;2022-12-18T04:50:09;16.00;;;6.50;;
16854;SDS011;8543;54.522;18.550;2022-12-18T04:52:34;14.80;;;6.80;;
16854;SDS011;8543;54.522;18.550;2022-12-18T04:55:00;13.00;;;6.40;;
16854;SDS011;8543;54.522;18.550;2022-12-18T04:57:25;13.90;;;6.50;;
16854;SDS011;8543;54.522;18.550;2022-12-18T04:59:51;14.80;;;6.60;;
16854;SDS011;8543;54.522;18.550;2022-12-18T05:02:16;15.50;;;6.30;;
16854;SDS011;8543;54.522;18.550;2022-12-18T05:04:41;11.60;;;5.20;;
16854;SDS011;8543;54.522;18.550;2022-12-18T05:07:07;11.30;;;5.30;;
16854;SDS011;8543;54.522;18.550;2022-12-18T05:09:32;10.10;;;5.00;;
16854;SDS011;8543;54.522;18.550;2022-12-18T05:11:58;9.20;;;4.90;;
16854;SDS011;8543;54.522;18.550;2022-12-18T05:14:23;10.00;;;4.40;;
16854;SDS011;8543;54.522;18.550;2022-12-18T05:16:48;13.10;;;4.50;;
16854;SDS011;8543;54.522;18.550;2022-12-18T05:19:14;8.20;;;4.30;;
16854;SDS011;8543;54.522;18.550;2022-12-18T05:21:39;9.90;;;4.30;;
16854;SDS011;8543;54.522;18.550;2022-12-18T05:24:04;10.70;;;4.60;;
16854;SDS011;8543;54.522;18.550;2022-12-18T05:26:30;9.00;;;4.00;;
16854;SDS011;8543;54.522;18.550;2022-12-18T05:28:55;6.70;;;3.90;;
16854;SDS011;8543;54.522;18.550;2022-12-18T05:31:21;11.70;;;4.60;;
16854;SDS011;8543;54.522;18.550;2022-12-18T05:33:49;7.90;;;3.80;;
16854;SDS011;8543;54.522;18.550;2022-12-18T05:36:14;8.20;;;4.10;;
16854;SDS011;8543;54.522;18.550;2022-12-18T05:38:40;8.90;;;3.60;;
16854;SDS011;8543;54.522;18.550;2022-12-18T05:41:05;9.70;;;3.90;;
16854;SDS011;8543;54.522;18.550;2022-12-18T05:43:31;8.50;;;4.00;;
16854;SDS011;8543;54.522;18.550;2022-12-18T05:46:02;8.80;;;3.40;;
16854;SDS011;8543;54.522;18.550;2022-12-18T05:48:29;11.20;;;4.30;;
16854;SDS011;8543;54.522;18.550;2022-12-18T05:50:54;9.20;;;4.60;;
16854;SDS011;8543;54.522;18.550;2022-12-18T05:53:20;7.10;;;3.10;;
16854;SDS011;8543;54.522;18.550;2022-12-18T05:55:46;6.50;;;3.20;;
16854;SDS011;8543;54.522;18.550;2022-12-18T05:58:12;9.30;;;4.10;;
16854;SDS011;8543;54.522;18.550;2022-12-18T06:00:44;9.90;;;3.70;;
16854;SDS011;8543;54.522;18.550;2022-12-18T06:03:10;6.00;;;3.40;;
16854;SDS011;8543;54.522;18.550;2022-12-18T06:05:37;7.70;;;3.10;;
16854;SDS011;8543;54.522;18.550;2022-12-18T06:08:04;9.20;;;3.80;;
16854;SDS011;8543;54.522;18.550;2022-12-18T06:10:30;9.60;;;3.80;;
16854;SDS011;8543;54.522;18.550;2022-12-18T06:12:55;7.50;;;3.70;;
16854;SDS011;8543;54.522;18.550;2022-12-18T06:15:21;6.50;;;3.50;;
16854;SDS011;8543;54.522;18.550;2022-12-18T06:17:46;8.10;;;4.00;;
16854;SDS011;8543;54.522;18.550;2022-12-18T06:20:11;8.50;;;4.20;;
16854;SDS011;8543;54.522;18.550;2022-12-18T06:22:37;8.30;;;4.10;;
16854;SDS011;8543;54.522;18.550;2022-12-18T06:25:02;9.70;;;3.80;;
16854;SDS011;8543;54.522;18.550;2022-12-18T06:27:28;7.40;;;3.40;;
16854;SDS011;8543;54.522;18.550;2022-12-18T06:29:54;9.20;;;4.00;;
16854;SDS011;8543;54.522;18.550;2022-12-18T06:32:19;7.80;;;3.70;;
16854;SDS011;8543;54.522;18.550;2022-12-18T06:34:45;6.80;;;4.10;;
16854;SDS011;8543;54.522;18.550;2022-12-18T06:37:10;7.70;;;3.90;;
16854;SDS011;8543;54.522;18.550;2022-12-18T06:39:35;7.20;;;3.50;;
16854;SDS011;8543;54.522;18.550;2022-12-18T06:42:01;6.80;;;3.50;;
16854;SDS011;8543;54.522;18.550;2022-12-18T06:44:26;9.70;;;3.80;;
16854;SDS011;8543;54.522;18.550;2022-12-18T06:46:51;8.40;;;4.20;;
16854;SDS011;8543;54.522;18.550;2022-12-18T06:49:17;8.20;;;3.80;;
16854;SDS011;8543;54.522;18.550;2022-12-18T06:51:42;7.80;;;3.40;;
16854;SDS011;8543;54.522;18.550;2022-12-18T06:54:08;8.60;;;3.70;;
16854;SDS011;8543;54.522;18.550;2022-12-18T06:56:33;7.40;;;3.90;;
16854;SDS011;8543;54.522;18.550;2022-12-18T06:58:59;7.80;;;4.10;;
16854;SDS011;8543;54.522;18.550;2022-12-18T07:01:24;8.10;;;4.20;;
16854;SDS011;8543;54.522;18.550;2022-12-18T07:03:53;9.70;;;4.50;;
16854;SDS011;8543;54.522;18.550;2022-12-18T07:06:20;9.20;;;4.70;;
16854;SDS011;8543;54.522;18.550;2022-12-18T07:08:47;7.90;;;4.30;;
16854;SDS011;8543;54.522;18.550;2022-12-18T07:11:14;8.50;;;4.70;;
16854;SDS011;8543;54.522;18.550;2022-12-18T07:13:39;9.60;;;4.90;;
16854;SDS011;8543;54.522;18.550;2022-12-18T07:16:09;10.60;;;5.20;;
16854;SDS011;8543;54.522;18.550;2022-12-18T07:18:36;8.70;;;4.70;;
16854;SDS011;8543;54.522;18.550;2022-12-18T07:21:08;9.70;;;4.90;;
16854;SDS011;8543;54.522;18.550;2022-12-18T07:23:36;10.30;;;5.20;;
16854;SDS011;8543;54.522;18.550;2022-12-18T07:26:05;10.80;;;4.90;;
16854;SDS011;8543;54.522;18.550;2022-12-18T07:28:32;10.40;;;6.30;;
16854;SDS011;8543;54.522;18.550;2022-12-18T07:31:02;9.30;;;5.40;;
16854;SDS011;8543;54.522;18.550;2022-12-18T07:33:28;9.50;;;5.30;;
16854;SDS011;8543;54.522;18.550;2022-12-18T07:35:53;8.80;;;5.30;;
16854;SDS011;8543;54.522;18.550;2022-12-18T07:38:19;11.30;;;5.60;;
16854;SDS011;8543;54.522;18.550;2022-12-18T07:40:44;10.20;;;4.90;;
16854;SDS011;8543;54.522;18.550;2022-12-18T07:43:09;10.10;;;4.90;;
16854;SDS011;8543;54.522;18.550;2022-12-18T07:45:35;10.20;;;5.30;;
16854;SDS011;8543;54.522;18.550;2022-12-18T07:48:01;11.30;;;5.90;;
16854;SDS011;8543;54.522;18.550;2022-12-18T07:50:26;12.10;;;5.50;;
16854;SDS011;8543;54.522;18.550;2022-12-18T07:52:52;11.00;;;5.20;;
16854;SDS011;8543;54.522;18.550;2022-12-18T07:55:17;8.40;;;5.10;;
16854;SDS011;8543;54.522;18.550;2022-12-18T07:57:42;9.60;;;4.90;;
16854;SDS011;8543;54.522;18.550;2022-12-18T08:00:08;9.20;;;5.10;;
16854;SDS011;8543;54.522;18.550;2022-12-18T08:02:34;13.00;;;5.40;;
16854;SDS011;8543;54.522;18.550;2022-12-18T08:04:59;10.70;;;5.50;;
16854;SDS011;8543;54.522;18.550;2022-12-18T08:07:24;10.00;;;4.60;;
16854;SDS011;8543;54.522;18.550;2022-12-18T08:09:50;9.10;;;5.00;;
16854;SDS011;8543;54.522;18.550;2022-12-18T08:12:15;11.80;;;5.10;;
16854;SDS011;8543;54.522;18.550;2022-12-18T08:14:40;9.50;;;5.00;;
16854;SDS011;8543;54.522;18.550;2022-12-18T08:17:06;9.10;;;5.40;;
16854;SDS011;8543;54.522;18.550;2022-12-18T08:19:31;9.80;;;5.50;;
16854;SDS011;8543;54.522;18.550;2022-12-18T08:21:57;11.70;;;5.80;;
16854;SDS011;8543;54.522;18.550;2022-12-18T08:24:22;8.70;;;5.20;;
16854;SDS011;8543;54.522;18.550;2022-12-18T08:26:47;9.00;;;5.40;;
16854;SDS011;8543;54.522;18.550;2022-12-18T08:29:13;11.80;;;5.90;;
16854;SDS011;8543;54.522;18.550;2022-12-18T08:31:38;9.40;;;6.00;;
16854;SDS011;8543;54.522;18.550;2022-12-18T08:34:04;9.50;;;5.50;;
16854;SDS011;8543;54.522;18.550;2022-12-18T08:36:29;11.80;;;6.00;;
16854;SDS011;8543;54.522;18.550;2022-12-18T08:38:54;12.40;;;5.70;;
16854;SDS011;8543;54.522;18.550;2022-12-18T08:41:21;9.30;;;5.20;;
16854;SDS011;8543;54.522;18.550;2022-12-18T08:43:46;11.70;;;5.70;;
16854;SDS011;8543;54.522;18.550;2022-12-18T08:46:32;10.90;;;6.30;;
16854;SDS011;8543;54.522;18.550;2022-12-18T08:49:03;11.60;;;5.80;;
16854;SDS011;8543;54.522;18.550;2022-12-18T08:51:28;13.50;;;6.40;;
16854;SDS011;8543;54.522;18.550;2022-12-18T08:53:54;12.10;;;7.00;;
16854;SDS011;8543;54.522;18.550;2022-12-18T08:56:19;12.90;;;6.30;;
16854;SDS011;8543;54.522;18.550;2022-12-18T08:58:45;12.00;;;7.00;;
16854;SDS011;8543;54.522;18.550;2022-12-18T09:01:10;14.00;;;7.30;;
16854;SDS011;8543;54.522;18.550;2022-12-18T09:03:37;13.00;;;6.70;;
16854;SDS011;8543;54.522;18.550;2022-12-18T09:06:03;14.20;;;7.30;;
16854;SDS011;8543;54.522;18.550;2022-12-18T09:08:29;12.00;;;7.40;;
16854;SDS011;8543;54.522;18.550;2022-12-18T09:10:54;13.00;;;7.10;;
16854;SDS011;8543;54.522;18.550;2022-12-18T09:13:20;13.40;;;7.20;;
16854;SDS011;8543;54.522;18.550;2022-12-18T09:15:50;15.40;;;8.30;;
16854;SDS011;8543;54.522;18.550;2022-12-18T09:18:17;13.80;;;7.60;;
16854;SDS011;8543;54.522;18.550;2022-12-18T09:20:43;16.00;;;8.30;;
16854;SDS011;8543;54.522;18.550;2022-12-18T09:23:09;15.70;;;8.10;;
16854;SDS011;8543;54.522;18.550;2022-12-18T09:25:36;14.30;;;8.40;;
16854;SDS011;8543;54.522;18.550;2022-12-18T09:28:03;15.30;;;8.90;;
16854;SDS011;8543;54.522;18.550;2022-12-18T09:30:29;14.50;;;7.70;;
16854;SDS011;8543;54.522;18.550;2022-12-18T09:32:55;13.60;;;7.80;;
16854;SDS011;8543;54.522;18.550;2022-12-18T09:35:21;15.00;;;8.40;;
16854;SDS011;8543;54.522;18.550;2022-12-18T09:37:46;13.80;;;7.50;;
16854;SDS011;8543;54.522;18.550;2022-12-18T09:40:19;15.80;;;7.70;;
16854;SDS011;8543;54.522;18.550;2022-12-18T09:42:50;15.10;;;8.10;;
16854;SDS011;8543;54.522;18.550;2022-12-18T09:45:19;15.00;;;8.40;;
16854;SDS011;8543;54.522;18.550;2022-12-18T09:47:45;13.50;;;7.80;;
16854;SDS011;8543;54.522;18.550;2022-12-18T09:52:58;14.50;;;8.60;;
16854;SDS011;8543;54.522;18.550;2022-12-18T09:55:36;16.10;;;8.40;;
16854;SDS011;8543;54.522;18.550;2022-12-18T10:00:34;15.20;;;7.80;;
16854;SDS011;8543;54.522;18.550;2022-12-18T10:03:01;14.70;;;7.50;;
16854;SDS011;8543;54.522;18.550;2022-12-18T10:08:25;13.90;;;7.90;;
16854;SDS011;8543;54.522;18.550;2022-12-18T10:11:14;12.00;;;6.80;;
16854;SDS011;8543;54.522;18.550;2022-12-18T10:13:50;14.30;;;8.00;;
16854;SDS011;8543;54.522;18.550;2022-12-18T10:16:40;14.30;;;7.70;;
16854;SDS011;8543;54.522;18.550;2022-12-18T10:27:21;13.30;;;7.20;;
16854;SDS011;8543;54.522;18.550;2022-12-18T10:29:47;13.10;;;7.30;;
16854;SDS011;8543;54.522;18.550;2022-12-18T10:32:17;16.80;;;7.70;;
16854;SDS011;8543;54.522;18.550;2022-12-18T10:34:46;13.10;;;6.60;;
16854;SDS011;8543;54.522;18.550;2022-12-18T10:37:21;14.70;;;7.90;;
16854;SDS011;8543;54.522;18.550;2022-12-18T10:42:33;15.80;;;7.60;;
16854;SDS011;8543;54.522;18.550;2022-12-18T10:45:09;14.00;;;7.20;;
16854;SDS011;8543;54.522;18.550;2022-12-18T10:47:37;13.30;;;7.20;;
16854;SDS011;8543;54.522;18.550;2022-12-18T10:50:23;15.40;;;7.70;;
16854;SDS011;8543;54.522;18.550;2022-12-18T10:52:58;13.90;;;8.10;;
16854;SDS011;8543;54.522;18.550;2022-12-18T10:55:26;12.60;;;7.10;;
16854;SDS011;8543;54.522;18.550;2022-12-18T10:57:55;16.10;;;7.60;;
16854;SDS011;8543;54.522;18.550;2022-12-18T11:00:39;15.10;;;7.70;;
16854;SDS011;8543;54.522;18.550;2022-12-18T11:03:07;12.60;;;6.90;;
16854;SDS011;8543;54.522;18.550;2022-12-18T11:08:32;14.20;;;7.50;;
16854;SDS011;8543;54.522;18.550;2022-12-18T11:10:58;16.10;;;7.60;;
16854;SDS011;8543;54.522;18.550;2022-12-18T11:13:24;11.90;;;7.00;;
16854;SDS011;8543;54.522;18.550;2022-12-18T11:15:52;13.30;;;7.50;;
16854;SDS011;8543;54.522;18.550;2022-12-18T11:18:19;12.50;;;6.70;;
16854;SDS011;8543;54.522;18.550;2022-12-18T11:20:51;14.60;;;7.30;;
16854;SDS011;8543;54.522;18.550;2022-12-18T11:23:22;14.60;;;8.00;;
16854;SDS011;8543;54.522;18.550;2022-12-18T11:25:59;14.30;;;7.30;;
16854;SDS011;8543;54.522;18.550;2022-12-18T11:28:39;14.70;;;7.20;;
16854;SDS011;8543;54.522;18.550;2022-12-18T11:31:26;14.10;;;7.40;;
16854;SDS011;8543;54.522;18.550;2022-12-18T11:36:24;14.20;;;7.00;;
16854;SDS011;8543;54.522;18.550;2022-12-18T11:38:51;14.60;;;6.50;;
16854;SDS011;8543;54.522;18.550;2022-12-18T11:41:27;17.20;;;7.70;;
16854;SDS011;8543;54.522;18.550;2022-12-18T11:50:14;13.00;;;7.60;;
16854;SDS011;8543;54.522;18.550;2022-12-18T11:52:42;13.90;;;7.00;;
16854;SDS011;8543;54.522;18.550;2022-12-18T12:09:24;12.90;;;7.10;;
16854;SDS011;8543;54.522;18.550;2022-12-18T12:12:11;11.90;;;6.80;;
16854;SDS011;8543;54.522;18.550;2022-12-18T12:15:34;13.80;;;6.90;;
16854;SDS011;8543;54.522;18.550;2022-12-18T12:34:57;11.70;;;5.60;;
16854;SDS011;8543;54.522;18.550;2022-12-18T12:40:13;11.40;;;5.30;;
16854;SDS011;8543;54.522;18.550;2022-12-18T12:42:46;11.60;;;6.00;;
16854;SDS011;8543;54.522;18.550;2022-12-18T12:45:54;12.30;;;5.60;;
16854;SDS011;8543;54.522;18.550;2022-12-18T12:48:41;12.70;;;5.80;;
16854;SDS011;8543;54.522;18.550;2022-12-18T12:51:19;11.80;;;5.50;;
16854;SDS011;8543;54.522;18.550;2022-12-18T12:53:47;10.60;;;5.30;;
16854;SDS011;8543;54.522;18.550;2022-12-18T12:56:14;11.80;;;5.60;;
16854;SDS011;8543;54.522;18.550;2022-12-18T13:04:15;10.10;;;4.80;;
16854;SDS011;8543;54.522;18.550;2022-12-18T13:06:45;13.10;;;5.90;;
16854;SDS011;8543;54.522;18.550;2022-12-18T13:12:37;14.50;;;6.50;;
16854;SDS011;8543;54.522;18.550;2022-12-18T13:15:40;11.20;;;5.50;;
16854;SDS011;8543;54.522;18.550;2022-12-18T13:20:35;11.70;;;5.30;;
16854;SDS011;8543;54.522;18.550;2022-12-18T13:23:18;11.90;;;6.00;;
16854;SDS011;8543;54.522;18.550;2022-12-18T13:28:18;11.30;;;5.30;;
16854;SDS011;8543;54.522;18.550;2022-12-18T13:30:50;10.80;;;5.10;;
16854;SDS011;8543;54.522;18.550;2022-12-18T13:40:55;10.30;;;4.90;;
16854;SDS011;8543;54.522;18.550;2022-12-18T13:46:04;10.40;;;5.00;;
16854;SDS011;8543;54.522;18.550;2022-12-18T13:51:23;11.30;;;5.50;;
16854;SDS011;8543;54.522;18.550;2022-12-18T13:53:50;10.60;;;5.10;;
16854;SDS011;8543;54.522;18.550;2022-12-18T13:56:18;9.40;;;4.50;;
16854;SDS011;8543;54.522;18.550;2022-12-18T13:59:33;9.30;;;5.30;;
16854;SDS011;8543;54.522;18.550;2022-12-18T14:01:52;11.00;;;5.30;;
16854;SDS011;8543;54.522;18.550;2022-12-18T14:04:28;10.50;;;5.30;;
16854;SDS011;8543;54.522;18.550;2022-12-18T14:06:57;9.60;;;4.90;;
16854;SDS011;8543;54.522;18.550;2022-12-18T14:09:34;12.00;;;5.40;;
16854;SDS011;8543;54.522;18.550;2022-12-18T14:12:02;9.50;;;4.80;;
16854;SDS011;8543;54.522;18.550;2022-12-18T14:14:49;9.10;;;4.90;;
16854;SDS011;8543;54.522;18.550;2022-12-18T14:17:16;10.20;;;4.30;;
16854;SDS011;8543;54.522;18.550;2022-12-18T14:19:43;10.10;;;5.80;;
16854;SDS011;8543;54.522;18.550;2022-12-18T14:22:17;9.10;;;4.10;;
16854;SDS011;8543;54.522;18.550;2022-12-18T14:24:44;12.00;;;5.20;;
16854;SDS011;8543;54.522;18.550;2022-12-18T14:27:21;11.00;;;5.40;;
16854;SDS011;8543;54.522;18.550;2022-12-18T14:29:48;12.30;;;5.30;;
16854;SDS011;8543;54.522;18.550;2022-12-18T14:32:18;10.30;;;5.80;;
16854;SDS011;8543;54.522;18.550;2022-12-18T14:34:53;10.00;;;5.60;;
16854;SDS011;8543;54.522;18.550;2022-12-18T14:37:26;12.20;;;6.20;;
16854;SDS011;8543;54.522;18.550;2022-12-18T14:39:56;12.30;;;6.30;;
16854;SDS011;8543;54.522;18.550;2022-12-18T14:42:23;9.10;;;5.30;;
16854;SDS011;8543;54.522;18.550;2022-12-18T14:45:17;12.20;;;5.60;;
16854;SDS011;8543;54.522;18.550;2022-12-18T14:47:56;12.20;;;4.70;;
16854;SDS011;8543;54.522;18.550;2022-12-18T14:50:22;12.00;;;5.90;;
16854;SDS011;8543;54.522;18.550;2022-12-18T14:52:47;12.20;;;5.90;;
16854;SDS011;8543;54.522;18.550;2022-12-18T14:55:17;14.00;;;6.60;;
16854;SDS011;8543;54.522;18.550;2022-12-18T14:57:43;13.20;;;6.40;;
16854;SDS011;8543;54.522;18.550;2022-12-18T15:00:16;12.90;;;6.70;;
16854;SDS011;8543;54.522;18.550;2022-12-18T15:02:44;12.20;;;6.60;;
16854;SDS011;8543;54.522;18.550;2022-12-18T15:07:41;11.10;;;5.60;;
16854;SDS011;8543;54.522;18.550;2022-12-18T15:12:45;14.80;;;7.50;;
16854;SDS011;8543;54.522;18.550;2022-12-18T15:18:19;12.70;;;5.80;;
16854;SDS011;8543;54.522;18.550;2022-12-18T15:21:29;14.40;;;6.10;;
16854;SDS011;8543;54.522;18.550;2022-12-18T15:23:37;14.30;;;7.30;;
16854;SDS011;8543;54.522;18.550;2022-12-18T15:26:09;14.00;;;7.00;;
16854;SDS011;8543;54.522;18.550;2022-12-18T15:28:36;15.60;;;7.10;;
16854;SDS011;8543;54.522;18.550;2022-12-18T15:33:36;12.60;;;6.00;;
16854;SDS011;8543;54.522;18.550;2022-12-18T15:36:10;16.50;;;7.80;;
16854;SDS011;8543;54.522;18.550;2022-12-18T15:38:37;17.80;;;7.00;;
16854;SDS011;8543;54.522;18.550;2022-12-18T15:41:02;13.90;;;6.90;;
16854;SDS011;8543;54.522;18.550;2022-12-18T15:43:28;16.00;;;7.80;;
16854;SDS011;8543;54.522;18.550;2022-12-18T15:46:08;16.70;;;7.40;;
16854;SDS011;8543;54.522;18.550;2022-12-18T15:48:48;15.00;;;6.60;;
16854;SDS011;8543;54.522;18.550;2022-12-18T15:51:18;14.00;;;6.50;;
16854;SDS011;8543;54.522;18.550;2022-12-18T15:53:46;11.00;;;5.40;;
16854;SDS011;8543;54.522;18.550;2022-12-18T15:56:13;17.00;;;7.80;;
16854;SDS011;8543;54.522;18.550;2022-12-18T15:58:58;15.80;;;6.70;;
16854;SDS011;8543;54.522;18.550;2022-12-18T16:01:25;16.40;;;6.90;;
16854;SDS011;8543;54.522;18.550;2022-12-18T16:03:52;16.60;;;7.70;;
16854;SDS011;8543;54.522;18.550;2022-12-18T16:06:18;15.60;;;8.30;;
16854;SDS011;8543;54.522;18.550;2022-12-18T16:08:43;14.50;;;7.90;;
16854;SDS011;8543;54.522;18.550;2022-12-18T16:11:16;15.00;;;6.70;;
16854;SDS011;8543;54.522;18.550;2022-12-18T16:14:04;14.20;;;7.10;;
16854;SDS011;8543;54.522;18.550;2022-12-18T16:16:30;12.00;;;6.80;;
16854;SDS011;8543;54.522;18.550;2022-12-18T16:18:56;18.20;;;8.10;;
16854;SDS011;8543;54.522;18.550;2022-12-18T16:21:21;17.40;;;8.50;;
16854;SDS011;8543;54.522;18.550;2022-12-18T16:23:46;13.20;;;6.60;;
16854;SDS011;8543;54.522;18.550;2022-12-18T16:26:12;13.60;;;6.40;;
16854;SDS011;8543;54.522;18.550;2022-12-18T16:28:37;14.60;;;6.80;;
16854;SDS011;8543;54.522;18.550;2022-12-18T16:31:02;19.80;;;8.50;;
16854;SDS011;8543;54.522;18.550;2022-12-18T16:33:28;15.30;;;7.50;;
16854;SDS011;8543;54.522;18.550;2022-12-18T16:35:53;15.30;;;6.90;;
16854;SDS011;8543;54.522;18.550;2022-12-18T16:38:19;17.20;;;7.90;;
16854;SDS011;8543;54.522;18.550;2022-12-18T16:40:44;18.10;;;8.10;;
16854;SDS011;8543;54.522;18.550;2022-12-18T16:43:28;17.70;;;8.90;;
16854;SDS011;8543;54.522;18.550;2022-12-18T16:45:54;17.00;;;7.90;;
16854;SDS011;8543;54.522;18.550;2022-12-18T16:48:22;15.00;;;7.30;;
16854;SDS011;8543;54.522;18.550;2022-12-18T16:50:47;17.80;;;7.70;;
16854;SDS011;8543;54.522;18.550;2022-12-18T16:53:13;18.80;;;8.60;;
16854;SDS011;8543;54.522;18.550;2022-12-18T16:55:38;19.20;;;8.50;;